Latest Weather Observations for Canberra

IDN60801

Issued at 9:03 pm EST Wednesday 5 August 2020 (issued every 10 minutes, with the page automatically refreshed every 10 minutes)

About weather observations | Map of weather stations | Latest weather observations for NSW | Other Formats
Station Details ID: 070351 Name: CANBERRA AIRPORT Lat: -35.31 Lon: 149.20 Height: 577.05 m
Data from the previous 72 hours. | See also: Recent months at Canberra
Date/Time
EST
Temp
°C
App
Temp
°C
Dew
Point
°C
Rel
Hum
%
Delta-T
°C
Wind Press
QNH
hPa
Press
MSL
hPa
Rain since
9am
mm
Dir  Spd
km/h
Gust
km/h
Spd
kts
Gust
kts
05/09:00pm 4.8 -1.7 0.0 71 1.9 NW 24 33 13 18 1014.8 1015.6 0.0
05/08:30pm 4.8 -1.8 -0.2 70 2.0 NW 24 30 13 16 1014.7 1015.5 0.0
05/08:00pm 4.1 -1.7 -1.3 68 2.0 NW 19 24 10 13 1014.6 1015.4 0.0
05/07:30pm 3.7 -1.9 -3.1 61 2.4 WNW 17 24 9 13 1014.7 1015.5 0.0
05/07:00pm 4.9 -1.1 -2.7 58 2.8 WNW 19 26 10 14 1014.6 1015.4 0.0
05/06:30pm 5.5 -1.1 -3.1 54 3.2 WNW 22 37 12 20 1014.3 1015.0 0.0
05/06:00pm 5.4 -1.5 -2.9 55 3.1 WNW 24 33 13 18 1013.7 1014.5 0.0
05/05:30pm 5.8 -2.3 -2.8 54 3.2 WNW 30 43 16 23 1013.4 1014.2 0.0
05/05:00pm 6.3 -2.1 -2.8 52 3.4 WNW 32 41 17 22 1012.9 1013.6 0.0
05/04:30pm 6.4 -2.0 -2.2 54 3.3 WNW 32 44 17 24 1012.6 1013.3 0.0
05/04:00pm 7.9 -1.1 -2.4 48 4.0 WNW 35 48 19 26 1011.9 1012.7 0.0
05/03:30pm 8.7 -1.2 -0.9 51 3.9 NNW 41 52 22 28 1011.4 1012.1 0.0
05/03:00pm 8.5 -0.2 -0.5 53 3.7 NNW 35 50 19 27 1011.6 1012.4 0.0
05/02:54pm 8.7 0.0 -0.6 52 3.8 NNW 35 50 19 27 1011.5 1012.2 0.0
05/02:30pm 9.0 -0.8 -0.1 53 3.7 NW 41 52 22 28 1010.9 1011.6 0.0
05/02:00pm 9.5 0.2 0.7 54 3.7 NW 39 54 21 29 1011.1 1011.8 0.0
05/01:30pm 9.5 1.9 0.4 53 3.8 NW 30 48 16 26 1011.4 1012.1 0.0
05/01:25pm 8.8 0.7 0.0 54 3.6 NW 32 48 17 26 1011.5 1012.2 0.0
05/01:00pm 9.1 3.1 -1.9 46 4.3 WNW 20 35 11 19 1011.9 1012.7 0.0
05/12:30pm 8.7 1.8 -2.3 46 4.3 WNW 24 39 13 21 1011.9 1012.7 0.0
05/12:00pm 8.8 1.0 -1.0 50 3.9 NW 30 41 16 22 1011.7 1012.5 0.0
05/11:30am 7.6 -0.7 -0.4 57 3.2 NNW 33 48 18 26 1011.7 1012.5 0.0
05/11:00am 7.4 0.7 -1.0 55 3.3 NNW 24 32 13 17 1012.1 1012.9 0.0
05/10:30am 6.5 -0.2 -1.4 57 3.1 NW 24 32 13 17 1012.3 1013.1 0.0
05/10:00am 5.7 -2.2 -1.7 59 2.8 WNW 30 39 16 21 1012.3 1013.1 0.0
05/09:30am 3.8 -4.3 -0.4 74 1.6 N 32 37 17 20 1012.3 1013.1 0.0
05/09:00am 2.8 -5.5 -1.5 73 1.6 N 32 37 17 20 1012.5 1013.2 0.0
05/08:30am 3.7 -4.2 -1.4 69 1.9 N 30 41 16 22 1011.9 1012.7 0.0
05/08:00am 2.6 -5.0 -1.9 72 1.7 N 28 41 15 22 1011.7 1012.5 0.0
05/07:30am 1.6 -4.3 -2.5 74 1.5 NNW 19 26 10 14 1011.7 1012.5 0.0
05/07:00am 1.1 -3.4 -3.6 71 1.7 NW 11 19 6 10 1011.8 1012.6 0.0
05/06:30am 1.2 -4.4 -3.1 73 1.6 NW 17 28 9 15 1011.3 1012.0 0.0
05/06:00am 1.6 -4.5 -2.7 73 1.5 NW 20 33 11 18 1011.5 1012.2 0.0
05/05:30am 1.3 -4.3 -2.6 75 1.5 NW 17 28 9 15 1011.8 1012.6 0.0
05/05:00am 1.8 -5.8 -2.5 73 1.5 NW 28 35 15 19 1011.1 1011.8 0.0
05/04:30am 1.1 -6.1 -1.8 81 1.0 NNW 26 33 14 18 1010.9 1011.6 0.0
05/04:00am 1.9 -4.1 -1.5 78 1.2 N 20 32 11 17 1011.2 1011.9 0.0
05/03:30am 2.1 -4.6 -1.2 79 1.2 N 24 30 13 16 1011.3 1012.0 0.0
05/03:00am 2.5 -3.4 -1.1 77 1.3 NW 20 28 11 15 1011.8 1012.6 0.0
05/02:30am 2.2 -3.8 -1.4 77 1.3 NNW 20 30 11 16 1011.7 1012.5 0.0
05/02:00am 2.2 -4.2 -1.4 77 1.3 NNW 22 33 12 18 1011.9 1012.7 0.0
05/01:30am 2.0 -4.4 -1.8 76 1.4 NNW 22 32 12 17 1012.6 1013.3 0.0
05/01:00am 2.1 -4.3 -1.7 76 1.4 NNW 22 28 12 15 1012.7 1013.4 0.0
05/12:30am 1.7 -4.2 -2.1 76 1.4 NNW 19 24 10 13 1012.8 1013.5 0.0
05/12:00am 1.3 -4.8 -2.3 77 1.3 NNW 20 26 11 14 1013.2 1014.0 0.0
 
Date/Time
EST
Temp
°C
App
Temp
°C
Dew
Point
°C
Rel
Hum
%
Delta-T
°C
Wind Press
QNH
hPa
Press
MSL
hPa
Rain since
9am
mm
Dir  Spd
km/h
Gust
km/h
Spd
kts
Gust
kts
04/11:30pm 1.2 -4.7 -2.4 77 1.4 N 19 24 10 13 1013.4 1014.2 0.0
04/11:00pm 1.8 -3.4 -3.1 70 1.7 NNE 15 20 8 11 1013.5 1014.3 0.0
04/10:30pm 2.5 -3.7 -3.2 66 2.0 N 20 26 11 14 1013.8 1014.6 0.0
04/10:00pm 1.9 -3.1 -4.0 65 2.1 NNE 13 17 7 9 1013.6 1014.4 0.0
04/09:30pm 2.9 -1.3 -4.1 60 2.4 N 9 13 5 7 1013.6 1014.4 0.0
04/09:00pm 3.2 -1.7 -3.8 60 2.5 NW 13 22 7 12 1013.5 1014.3 0.0
04/08:30pm 3.2 -3.1 -3.8 60 2.5 NW 20 28 11 15 1013.2 1014.0 0.0
04/08:00pm 3.6 -2.6 -5.1 53 3.0 WNW 19 24 10 13 1013.4 1014.2 0.0
04/07:30pm 4.0 -1.9 -5.2 51 3.1 W 17 20 9 11 1013.1 1013.9 0.0
04/07:00pm 4.3 -2.4 -4.4 53 3.1 WNW 22 28 12 15 1012.8 1013.5 0.0
04/06:30pm 4.8 -2.7 -4.2 52 3.2 WNW 26 35 14 19 1012.7 1013.4 0.0
04/06:00pm 5.3 -1.4 -4.0 51 3.3 WNW 22 33 12 18 1012.3 1013.1 0.0
04/05:30pm 6.0 -0.2 -4.7 46 3.8 WNW 19 30 10 16 1011.7 1012.5 0.0
04/05:00pm 7.2 0.1 -4.2 44 4.2 WNW 24 33 13 18 1011.2 1011.9 0.0
04/04:30pm 8.2 -0.5 -5.3 38 4.9 W 32 48 17 26 1010.9 1011.6 0.0
04/04:00pm 9.1 2.0 -4.1 39 5.0 WNW 24 37 13 20 1010.2 1011.0 0.0
04/03:30pm 9.4 1.6 -3.8 39 5.0 WNW 28 50 15 27 1009.9 1010.6 0.0
04/03:00pm 9.9 1.2 -3.0 40 5.0 WNW 33 50 18 27 1009.7 1010.4 0.0
04/02:38pm 10.1 1.0 -3.2 39 5.1 WNW 35 57 19 31 1009.5 1010.2 0.0
04/02:30pm 10.3 1.8 -3.0 39 5.2 W 32 46 17 25 1009.4 1010.1 0.0
04/02:00pm 10.7 3.3 -0.4 46 4.6 WNW 28 48 15 26 1009.3 1010.0 0.0
04/01:30pm 11.0 2.0 0.4 48 4.5 NW 37 57 20 31 1009.3 1010.0 0.0
04/01:06pm 11.0 3.9 3.5 60 3.4 WNW 30 52 16 28 1009.5 1010.2 0.0
04/01:00pm 10.9 3.3 2.7 57 3.7 WNW 32 48 17 26 1009.5 1010.2 0.0
04/12:30pm 10.1 2.5 2.9 61 3.2 WNW 32 52 17 28 1009.8 1010.5 0.0
04/12:00pm 10.7 3.2 4.2 64 3.0 WNW 33 52 18 28 1010.1 1010.9 0.0
04/11:30am 10.7 3.3 4.0 63 3.1 WNW 32 54 17 29 1010.5 1011.3 0.0
04/11:25am 11.3 4.0 4.5 63 3.2 WNW 32 50 17 27 1010.5 1011.3 0.0
04/11:00am 11.7 4.1 5.6 66 2.9 NW 35 48 19 26 1010.7 1011.4 0.0
04/10:30am 10.8 3.6 5.8 71 2.4 NNW 33 46 18 25 1010.9 1011.6 0.0
04/10:00am 10.0 2.8 4.8 70 2.4 NW 32 43 17 23 1011.0 1011.7 0.0
04/09:30am 9.2 2.3 4.6 73 2.1 NNW 30 37 16 20 1011.0 1011.7 0.0
04/09:00am 8.5 1.9 4.1 74 2.0 NNW 28 39 15 21 1011.2 1011.9 0.0
04/08:30am 7.9 1.7 4.1 77 1.7 N 26 33 14 18 1011.1 1011.8 0.0
04/08:00am 7.2 0.5 3.8 79 1.5 NNW 28 33 15 18 1011.1 1011.8 0.0
04/07:30am 6.8 0.1 3.6 80 1.4 NNW 28 33 15 18 1011.2 1011.9 0.0
04/07:00am 6.3 0.8 3.8 84 1.1 NNW 22 28 12 15 1011.3 1012.0 0.0
04/06:30am 5.6 0.6 3.8 88 0.8 NNW 19 24 10 13 1011.8 1012.6 0.0
04/06:00am 4.7 1.2 3.5 92 0.5 N 11 15 6 8 1012.0 1012.8 0.0
04/05:30am 4.8 0.2 3.5 91 0.6 NNE 17 20 9 11 1012.1 1012.9 0.0
04/05:00am 5.0 0.3 3.3 89 0.7 NNE 17 19 9 10 1012.2 1013.0 0.0
04/04:30am 5.5 1.3 3.7 88 0.8 NNE 15 17 8 9 1012.5 1013.2 0.0
04/04:00am 5.5 1.7 3.8 89 0.7 NNE 13 15 7 8 1012.7 1013.4 0.0
04/03:30am 2.2 0.2 2.1 99 0.0 ESE 2 11 1 6 1012.8 1013.5 0.0
04/03:00am 0.8 -1.1 0.4 97 0.2 CALM 0 0 0 0 1013.2 1014.0 0.0
04/02:30am 1.1 -1.1 0.8 98 0.1 S 2 7 1 4 1013.6 1014.4 0.0
04/02:00am 1.5 -0.3 1.4 99 0.0 CALM 0 0 0 0 1013.8 1014.6 0.0
04/01:30am 1.5 -0.3 1.2 98 0.1 CALM 0 0 0 0 1014.3 1015.0 0.0
04/01:00am 1.7 -1.4 1.1 96 0.2 S 7 11 4 6 1014.4 1015.1 0.0
04/12:30am 3.3 0.3 2.3 93 0.4 S 7 9 4 5 1014.4 1015.1 0.0
04/12:00am 4.4 2.7 1.9 84 1.0 CALM 0 0 0 0 1014.9 1015.7 0.0
 
Date/Time
EST
Temp
°C
App
Temp
°C
Dew
Point
°C
Rel
Hum
%
Delta-T
°C
Wind Press
QNH
hPa
Press
MSL
hPa
Rain since
9am
mm
Dir  Spd
km/h
Gust
km/h
Spd
kts
Gust
kts
03/11:30pm 6.2 4.7 3.0 80 1.4 CALM 0 0 0 0 1015.3 1016.1 0.0
03/11:00pm 6.0 2.8 2.8 80 1.4 NNE 9 11 5 6 1015.5 1016.3 0.0
03/10:30pm 7.5 5.0 4.5 81 1.4 NNE 7 11 4 6 1015.7 1016.5 0.0
03/10:00pm 8.5 5.7 5.1 79 1.6 NNE 9 11 5 6 1015.9 1016.8 0.0
03/09:30pm 8.4 5.2 5.0 79 1.6 NNE 11 13 6 7 1015.9 1016.8 0.0
03/09:00pm 8.3 5.0 4.3 76 1.8 N 11 15 6 8 1016.0 1016.9 0.0
03/08:30pm 8.3 4.4 3.6 72 2.1 NNE 13 15 7 8 1016.3 1017.1 0.0
03/08:00pm 8.4 3.8 3.5 71 2.2 N 17 20 9 11 1016.2 1017.0 0.0
03/07:30pm 9.3 4.4 3.9 69 2.4 NNW 19 26 10 14 1016.4 1017.2 0.0
03/07:00pm 8.8 4.1 3.2 68 2.5 NNW 17 22 9 12 1016.2 1017.0 0.0
03/06:30pm 9.6 4.9 3.4 65 2.8 NNW 17 26 9 14 1016.3 1017.1 0.0
03/06:00pm 9.9 5.2 3.2 63 3.0 NNW 17 24 9 13 1016.2 1017.0 0.0
03/05:30pm 10.7 4.8 3.7 62 3.2 NNW 24 30 13 16 1015.9 1016.8 0.0
03/05:00pm 11.4 5.2 4.2 61 3.3 NNW 26 32 14 17 1015.8 1016.6 0.0
03/04:30pm 11.7 6.3 4.4 61 3.4 NNW 22 26 12 14 1015.8 1016.6 0.0
03/04:00pm 12.9 8.1 5.6 61 3.5 NNW 20 28 11 15 1015.9 1016.8 0.0
03/03:30pm 13.4 8.6 5.6 59 3.8 NNW 20 28 11 15 1016.0 1016.9 0.0
03/03:00pm 13.4 8.6 5.6 59 3.8 NNW 20 24 11 13 1016.2 1017.0 0.0
03/02:30pm 13.1 8.4 6.0 62 3.5 NNW 20 28 11 15 1016.5 1017.3 0.0
03/02:00pm 13.4 9.5 7.0 65 3.2 NNW 17 26 9 14 1016.6 1017.4 0.0
03/01:30pm 11.8 9.7 5.7 66 2.9 NW 6 9 3 5 1017.0 1017.8 0.0
03/01:00pm 9.4 7.0 5.2 75 2.0 SSW 7 9 4 5 1017.7 1018.6 0.0
03/12:30pm 7.7 5.3 4.5 80 1.4 ESE 6 9 3 5 1018.5 1019.3 0.0
03/12:00pm 5.8 2.9 4.4 91 0.6 SW 9 11 5 6 1019.1 1020.0 0.0
03/11:51am 5.7 2.8 4.8 94 0.4 WSW 9 11 5 6 1019.3 1020.2 0.0
03/11:30am 5.0 2.7 4.9 99 0.0 W 6 9 3 5 1019.5 1020.4 0.0
03/11:00am 4.0 1.0 4.0 100 0.0 W 9 11 5 6 1020.4 1021.3 0.0
03/10:43am 3.3 0.5 3.3 100 0.0 NW 7 11 4 6 1020.6 1021.5 0.0
03/10:30am 2.8 -0.4 2.8 100 0.0 NNW 9 11 5 6 1020.8 1021.7 0.0
03/10:05am 2.8 -0.1 2.8 100 0.0 N 7 13 4 7 1021.0 1021.9 0.0
03/10:00am 2.6 -0.7 2.5 99 0.0 NNW 9 13 5 7 1020.9 1021.8 0.0
03/09:30am 1.9 0.2 1.8 99 0.0 CALM 0 0 0 0 1021.2 1022.1 0.0
03/09:00am 1.3 -0.5 1.2 99 0.0 CALM 0 0 0 0 1021.4 1022.3 0.4
03/08:30am 0.1 -1.9 0.0 99 0.0 CALM 0 0 0 0 1021.3 1022.2 0.2
03/08:29am 0.0 -2.0 -0.1 99 0.0 CALM 0 0 0 0 1021.3 1022.2 0.2
03/08:21am - - - - - CALM 0 - 0 - - - -
03/08:07am - - - - - CALM 0 - 0 - - - -
03/08:00am -0.7 -2.8 -0.8 99 0.0 CALM 0 0 0 0 1021.4 1022.3 0.2
03/07:55am -0.9 -3.0 -1.0 99 0.0 CALM 0 0 0 0 1021.4 1022.3 0.2
03/07:45am -1.0 -3.1 -1.1 99 0.0 CALM 0 0 0 0 1021.4 1022.3 0.2
03/07:30am -1.5 -3.7 -1.6 99 0.0 CALM 0 0 0 0 1021.5 1022.4 0.2
03/07:12am -1.9 -4.5 -2.0 99 -0.1 ENE 2 7 1 4 1021.3 1022.2 0.2
03/07:01am -2.0 -5.4 -2.1 99 -0.1 ENE 6 7 3 4 1021.2 1022.1 0.2
03/07:00am -2.0 -5.4 -2.1 99 -0.1 ENE 6 7 3 4 1021.2 1022.1 0.2
03/06:54am - - - - - ENE 4 7 2 4 - - -
03/06:52am - - - - - ENE 2 7 1 4 - - -
03/06:33am -2.2 -4.5 -2.3 99 -0.1 CALM 0 0 0 0 1021.1 1022.0 0.2
03/06:30am -2.2 -4.5 -2.3 99 -0.1 CALM 0 0 0 0 1021.1 1022.0 0.2
03/06:09am - - - - - CALM 0 - 0 - - - -
03/06:00am -2.7 -5.1 -2.8 99 -0.1 CALM 0 0 0 0 1021.0 1021.9 0.2
03/05:54am -2.7 -5.1 -2.8 99 -0.1 CALM 0 0 0 0 1020.9 1021.8 0.2
03/05:50am - - - - - CALM 0 - 0 - - - -
03/05:41am -2.2 -4.5 -2.3 99 -0.1 CALM 0 0 0 0 1020.9 1021.8 0.2
03/05:30am -2.3 -4.6 -2.4 99 -0.1 CALM 0 0 0 0 1020.8 1021.7 0.2
03/05:27am -2.2 -4.5 -2.3 99 -0.1 CALM 0 0 0 0 1020.8 1021.7 0.2
03/05:20am -2.3 -4.6 -2.4 99 -0.1 CALM 0 0 0 0 1020.8 1021.7 0.2
03/05:15am - - - - - CALM 0 - 0 - - - -
03/05:14am - - - - - CALM 0 - 0 - - - -
03/05:05am -2.4 -4.7 -2.5 99 -0.1 CALM 0 0 0 0 1020.8 1021.7 0.2
03/05:00am -2.6 -4.9 -2.7 99 -0.1 CALM 0 0 0 0 1020.8 1021.7 0.2
03/04:51am - - - - - CALM 0 - 0 - - - -
03/04:49am - - - - - CALM 0 - 0 - - - -
03/04:41am - - - - - CALM 0 - 0 - - - -
03/04:30am - - - - - CALM 0 - 0 - - - -
03/04:29am - - - - - CALM 0 - 0 - - - -
03/04:27am - - - - - CALM 0 - 0 - - - -
03/04:17am - - - - - CALM 0 - 0 - - - -
03/04:00am -2.1 -4.4 -2.2 99 -0.1 CALM 0 0 0 0 1020.8 1021.7 0.2
03/03:58am -2.1 -4.4 -2.2 99 -0.1 CALM 0 0 0 0 1020.8 1021.7 0.2
03/03:53am - - - - - ENE 2 4 1 2 - - -
03/03:46am -1.7 -5.1 -1.8 99 0.0 ENE 6 7 3 4 1020.9 1021.8 0.2
03/03:30am -1.5 -5.0 -1.6 99 0.0 SE 7 7 4 4 1021.0 1021.9 0.2
03/03:27am -1.6 -5.0 -1.7 99 0.0 SE 6 7 3 4 1021.0 1021.9 0.2
03/03:23am -1.9 -5.3 -2.0 99 -0.1 SE 6 7 3 4 1021.1 1022.0 0.2
03/03:14am -1.8 -5.2 -1.9 99 0.0 SE 6 7 3 4 1021.1 1022.0 0.2
03/03:04am -1.9 -5.5 -2.0 99 -0.1 SE 7 7 4 4 1021.2 1022.1 0.2
03/03:00am -2.1 -5.5 -2.2 99 -0.1 SE 6 7 3 4 1021.2 1022.1 0.2
03/02:52am -2.0 -5.6 -2.1 99 -0.1 SE 7 9 4 5 1021.3 1022.2 0.2
03/02:40am -2.4 -5.1 -2.5 99 -0.1 SE 2 9 1 5 1021.3 1022.2 0.2
03/02:30am -1.1 -3.3 -1.2 99 0.0 CALM 0 0 0 0 1021.4 1022.3 0.2
03/02:25am -1.1 -3.6 -1.2 99 0.0 SE 2 6 1 3 1021.5 1022.4 0.2
03/02:24am -1.1 -3.6 -1.2 99 0.0 SE 2 6 1 3 1021.5 1022.4 0.2
03/02:00am -1.1 -3.6 -1.2 99 0.0 SE 2 7 1 4 1022.0 1022.9 0.2
03/01:58am -1.2 -3.4 -1.3 99 0.0 CALM 0 6 0 3 1022.0 1022.9 0.2
03/01:44am -1.3 -3.5 -1.4 99 0.0 CALM 0 0 0 0 1022.1 1023.0 0.2
03/01:33am -1.2 -3.4 -1.3 99 0.0 CALM 0 0 0 0 1022.3 1023.2 0.2
03/01:30am -1.2 -3.4 -1.3 99 0.0 CALM 0 0 0 0 1022.3 1023.2 0.2
03/01:14am -1.9 -4.9 -2.0 99 -0.1 SE 4 7 2 4 1022.4 1023.3 0.2
03/01:00am -0.6 -4.4 -0.7 99 0.0 SE 9 9 5 5 1022.5 1023.4 0.2
03/12:37am -0.7 -3.9 -0.8 99 0.0 SE 6 9 3 5 1022.7 1023.6 0.2
03/12:30am -0.8 -4.1 -0.9 99 0.0 SE 6 7 3 4 1022.7 1023.6 0.2
03/12:00am -0.1 -2.1 -0.2 99 0.0 CALM 0 0 0 0 1023.3 1024.3 0.2
 
Date/Time
EST
Temp
°C
App
Temp
°C
Dew
Point
°C
Rel
Hum
%
Delta-T
°C
Wind Press
QNH
hPa
Press
MSL
hPa
Rain since
9am
mm
Dir  Spd
km/h
Gust
km/h
Spd
kts
Gust
kts
02/11:47pm -0.1 -2.1 -0.2 99 0.0 CALM 0 0 0 0 1023.1 1024.0 0.2
02/11:42pm -0.3 -2.3 -0.4 99 0.0 CALM 0 0 0 0 1023.1 1024.0 0.2
02/11:30pm -0.8 -2.9 -0.9 99 0.0 CALM 0 0 0 0 1023.1 1024.0 0.2
02/11:21pm 0.3 -1.7 0.2 99 0.0 CALM 0 0 0 0 1023.2 1024.1 0.2
02/11:00pm 0.2 -1.8 0.1 99 0.0 CALM 0 0 0 0 1023.3 1024.3 0.2
02/10:30pm -0.1 -3.3 -0.2 99 0.0 SE 6 9 3 5 1023.7 1024.6 0.2
02/10:00pm 1.3 -2.2 1.2 99 0.0 N 9 11 5 6 1023.7 1024.6 0.2
02/09:53pm 1.5 -2.0 1.4 99 0.0 NNE 9 11 5 6 1023.6 1024.5 0.2
02/09:37pm 1.4 -0.4 1.3 99 0.0 CALM 0 0 0 0 1023.6 1024.5 0.2
02/09:30pm 1.3 -0.5 1.2 99 0.0 CALM 0 0 0 0 1023.6 1024.5 0.2
02/09:02pm 2.3 0.7 2.2 99 0.0 CALM 0 0 0 0 1023.8 1024.7 0.2

Other formats

Comma delimited format used in spreadsheet applications
http://www.bom.gov.au/fwo/IDN60801/IDN60801.94926.axf

JavaScript Object Notation format (JSON) in row-major order
http://www.bom.gov.au/fwo/IDN60801/IDN60801.94926.json

Data quality

Most of these data are generated automatically and are frequently updated. Quality checks on data are not normally performed. It is possible for incorrect values to appear. Refer to information at About Latest Weather Observations and please check the disclaimer before using these data.